Time;durP1;ratioP1;P1;durP2;ratioP2;P2;SDS_P1;SDS_P2;PMS_P1;PMS_P2;Temp;Humidity;BMP_temperature;BMP_pressure;BME280_temperature;BME280_humidity;BME280_pressure;Samples;Min_cycle;Max_cycle;Signal;HPM_P1;HPM_P2
2021/12/18 00:01:07;;;;;;;13.55;5.28;;;;;;;2.86;84.23;100729.50;1761551;81;21030;-40
2021/12/18 00:03:33;;;;;;;21.73;5.42;;;;;;;2.79;84.39;100734.27;1761690;81;20988;-41
2021/12/18 00:06:00;;;;;;;19.40;5.90;;;;;;;2.82;84.31;100729.94;1761503;81;21541;-42
2021/12/18 00:08:26;;;;;;;16.53;5.30;;;;;;;2.89;84.21;100733.37;1761704;81;20995;-41
2021/12/18 00:10:55;;;;;;;13.75;5.22;;;;;;;3.00;83.93;100733.36;1761439;81;20983;-42
2021/12/18 00:13:20;;;;;;;12.53;5.20;;;;;;;2.86;84.11;100746.39;1761316;81;21468;-42
2021/12/18 00:15:46;;;;;;;17.50;5.62;;;;;;;2.96;83.81;100751.13;1761470;81;20963;-42
2021/12/18 00:18:12;;;;;;;21.05;5.92;;;;;;;2.92;83.97;100755.91;1761469;80;21030;-41
2021/12/18 00:20:38;;;;;;;13.22;5.03;;;;;;;2.94;84.04;100752.88;1761578;81;20979;-42
2021/12/18 00:23:06;;;;;;;16.45;5.55;;;;;;;3.01;83.82;100754.16;1761401;81;21018;-41
2021/12/18 00:25:32;;;;;;;14.95;5.92;;;;;;;2.93;83.49;100762.41;1761578;81;21025;-41
2021/12/18 00:27:58;;;;;;;15.63;5.25;;;;;;;2.89;83.76;100776.24;1761399;80;21026;-42
2021/12/18 00:30:25;;;;;;;16.20;5.15;;;;;;;2.97;83.91;100771.92;1761429;81;21054;-42
2021/12/18 00:32:52;;;;;;;;;;;;;;;2.99;83.82;100754.59;1764069;81;20999;-41
2021/12/18 00:35:18;;;;;;;16.02;5.22;;;;;;;2.91;83.58;100758.95;1761738;81;20140;-41
2021/12/18 00:37:45;;;;;;;15.88;5.17;;;;;;;3.00;83.50;100764.55;1761516;80;20995;-41
2021/12/18 00:40:19;;;;;;;18.60;4.83;;;;;;;2.95;83.68;100750.28;1761568;81;20994;-41
2021/12/18 00:42:49;;;;;;;12.47;5.08;;;;;;;2.98;83.64;100754.59;1760714;81;21465;-42
2021/12/18 00:45:12;;;;;;;;;;;;;;;2.97;83.85;100755.48;1763168;81;20972;-41
2021/12/18 00:47:38;;;;;;;12.25;4.87;;;;;;;2.92;83.68;100759.80;1761300;81;20417;-41
2021/12/18 00:50:11;;;;;;;13.43;4.90;;;;;;;3.03;83.77;100774.52;1761413;80;21569;-40
2021/12/18 00:52:37;;;;;;;15.00;4.92;;;;;;;3.04;83.65;100771.05;1760978;81;21001;-41
2021/12/18 00:55:04;;;;;;;11.38;4.65;;;;;;;3.06;83.64;100778.42;1761373;80;20999;-42
2021/12/18 00:57:30;;;;;;;15.98;5.55;;;;;;;3.13;83.59;100795.30;1761628;81;21034;-41
2021/12/18 01:00:00;;;;;;;13.93;5.10;;;;;;;3.05;83.44;100797.46;1761500;81;21493;-40
2021/12/18 01:02:24;;;;;;;15.60;5.30;;;;;;;3.00;83.66;100791.84;1761063;81;20959;-41
2021/12/18 01:04:50;;;;;;;18.25;5.53;;;;;;;3.01;83.69;100786.64;1761422;81;21007;-41
2021/12/18 01:07:15;;;;;;;13.93;4.95;;;;;;;3.01;83.45;100791.84;1761403;81;21023;-42
2021/12/18 01:12:11;;;;;;;13.28;4.87;;;;;;;2.94;83.71;100794.00;1761430;81;20967;-42
2021/12/18 01:25:04;;;;;;;18.80;6.03;;;;;;;3.08;83.30;100777.98;1761410;81;20971;-41
2021/12/18 01:27:30;;;;;;;14.45;6.17;;;;;;;3.01;83.41;100770.19;1761512;80;20967;-40
2021/12/18 01:29:55;;;;;;;17.50;5.65;;;;;;;2.93;83.48;100778.00;1761439;81;21597;-40
2021/12/18 01:32:22;;;;;;;20.70;5.20;;;;;;;2.98;83.23;100776.23;1761484;81;20955;-41
2021/12/18 01:34:48;;;;;;;16.25;5.40;;;;;;;2.96;83.29;100781.88;1761388;81;21002;-41
2021/12/18 01:37:14;;;;;;;13.50;5.28;;;;;;;2.94;83.29;100773.66;1761700;81;20968;-42
2021/12/18 01:39:41;;;;;;;15.98;5.42;;;;;;;2.92;83.56;100778.85;1761392;81;20964;-42
2021/12/18 01:52:55;;;;;;;17.40;5.60;;;;;;;2.95;83.44;100781.46;1748048;82;20983;-43
2021/12/18 01:55:23;;;;;;;;;;;;;;;2.88;83.29;100781.03;1750501;81;20992;-41
2021/12/18 01:57:49;;;;;;;14.68;5.70;;;;;;;2.90;83.14;100775.39;1747940;81;20133;-41
2021/12/18 02:00:22;;;;;;;11.70;4.97;;;;;;;2.88;83.35;100773.23;1748056;81;21031;-42
2021/12/18 02:02:48;;;;;;;12.00;5.08;;;;;;;2.91;83.23;100785.34;1747982;81;20995;-40
2021/12/18 02:05:14;;;;;;;18.12;5.55;;;;;;;2.91;83.07;100779.73;1747998;81;20983;-41
2021/12/18 02:07:41;;;;;;;19.57;5.20;;;;;;;2.90;83.30;100782.33;1748031;81;21068;-40
2021/12/18 02:10:16;;;;;;;13.55;4.97;;;;;;;2.86;83.33;100782.32;1748121;81;21430;-41
2021/12/18 02:12:49;;;;;;;16.15;5.15;;;;;;;2.95;83.17;100785.36;1747474;81;21533;-42
2021/12/18 02:20:47;;;;;;;9.85;4.55;;;;;;;2.94;83.02;100797.91;1748105;81;21003;-40
2021/12/18 02:23:14;;;;;;;18.02;6.03;;;;;;;2.98;82.98;100792.27;1747259;81;20968;-41
2021/12/18 02:25:40;;;;;;;19.27;5.95;;;;;;;3.10;82.99;100781.02;1748329;81;20999;-40
2021/12/18 02:28:16;;;;;;;11.08;5.58;;;;;;;2.99;82.82;100784.48;1748105;81;21488;-41
2021/12/18 02:30:37;;;;;;;13.08;6.15;;;;;;;3.01;82.81;100776.25;1747510;81;20952;-40
2021/12/18 02:33:02;;;;;;;14.47;6.22;;;;;;;3.04;82.59;100772.80;1747972;81;21038;-40
2021/12/18 02:35:43;;;;;;;18.35;7.70;;;;;;;2.98;82.77;100777.54;1748017;81;20972;-41
2021/12/18 02:38:19;;;;;;;18.92;6.72;;;;;;;3.01;83.01;100779.29;1747709;81;20980;-41
2021/12/18 02:43:13;;;;;;;15.15;6.90;;;;;;;3.05;82.70;100780.56;1642926;85;21550;-40
2021/12/18 02:45:40;;;;;;;19.48;6.72;;;;;;;2.99;82.64;100776.69;1694750;85;21160;-41
2021/12/18 02:48:05;;;;;;;15.98;6.58;;;;;;;3.00;82.74;100770.64;1695241;84;21599;-40
2021/12/18 02:50:31;;;;;;;23.05;6.55;;;;;;;2.98;82.73;100773.64;1695195;84;21041;-41
2021/12/18 02:52:57;;;;;;;14.78;5.28;;;;;;;2.92;83.08;100780.16;1695331;83;21017;-41
2021/12/18 02:55:23;;;;;;;15.72;5.67;;;;;;;2.95;83.34;100769.77;1695190;84;21021;-41
2021/12/18 02:57:49;;;;;;;23.02;6.05;;;;;;;2.87;83.44;100767.59;1695130;85;21488;-40
2021/12/18 03:00:17;;;;;;;17.98;6.08;;;;;;;2.86;83.42;100772.37;1695197;84;21013;-40
2021/12/18 03:02:45;;;;;;;14.93;5.92;;;;;;;2.92;83.26;100768.45;1695195;85;21009;-41
2021/12/18 03:05:19;;;;;;;16.67;6.87;;;;;;;2.86;83.46;100773.67;1695106;84;21465;-42
2021/12/18 03:07:39;;;;;;;20.48;6.75;;;;;;;2.88;83.24;100776.69;1694331;84;20977;-41
2021/12/18 03:23:35;;;;;;;20.62;6.05;;;;;;;2.83;83.09;100760.67;1695066;83;20981;-40
2021/12/18 03:25:58;;;;;;;13.45;5.62;;;;;;;2.76;83.45;100764.12;1694277;84;21053;-41
2021/12/18 03:28:25;;;;;;;16.67;5.80;;;;;;;2.76;83.59;100753.73;1695037;84;21498;-42
2021/12/18 03:30:51;;;;;;;;;;;;;;;2.91;83.22;100750.27;1697768;83;21009;-40
2021/12/18 03:33:17;;;;;;;18.67;5.80;;;;;;;2.82;83.14;100762.81;1695137;85;20130;-41
2021/12/18 03:35:43;;;;;;;18.42;6.03;;;;;;;2.82;83.09;100761.52;1695045;85;21453;-40
2021/12/18 03:38:10;;;;;;;13.40;5.30;;;;;;;2.84;83.19;100754.62;1695131;84;21000;-41
2021/12/18 03:40:36;;;;;;;19.52;5.97;;;;;;;2.86;83.08;100754.18;1695377;85;21004;-41
2021/12/18 03:43:03;;;;;;;10.13;4.65;;;;;;;2.86;82.97;100748.98;1686641;84;20997;-41
2021/12/18 03:45:29;;;;;;;10.28;4.97;;;;;;;2.90;82.82;100757.20;1686451;84;21017;-42
2021/12/18 03:47:55;;;;;;;12.13;5.70;;;;;;;2.76;82.77;100750.70;1686680;84;21064;-40
2021/12/18 03:50:22;;;;;;;14.38;5.97;;;;;;;2.84;82.73;100752.02;1688200;84;21009;-41
2021/12/18 03:52:49;;;;;;;14.38;5.25;;;;;;;2.89;82.58;100746.36;1685932;84;21073;-42
2021/12/18 03:55:15;;;;;;;12.00;4.92;;;;;;;2.92;82.41;100743.77;1675214;85;21014;-40
2021/12/18 03:57:41;;;;;;;11.63;4.83;;;;;;;2.91;82.34;100747.66;1683182;84;21487;-41
2021/12/18 04:00:11;;;;;;;10.75;4.62;;;;;;;2.85;82.28;100749.39;1680418;85;20986;-41
2021/12/18 04:02:37;;;;;;;12.25;4.97;;;;;;;2.87;82.16;100736.41;1674035;86;21478;-42
2021/12/18 04:05:03;;;;;;;9.58;4.35;;;;;;;2.86;81.88;100735.99;1674053;85;21014;-40
2021/12/18 04:07:29;;;;;;;13.80;4.25;;;;;;;2.94;81.95;100738.13;1682448;83;21013;-41
2021/12/18 04:09:55;;;;;;;12.88;4.45;;;;;;;2.95;81.55;100743.78;1686719;84;21524;-42
2021/12/18 04:12:21;;;;;;;10.78;4.62;;;;;;;3.00;81.27;100745.05;1686584;85;21045;-40
2021/12/18 04:14:46;;;;;;;8.33;4.17;;;;;;;3.09;81.66;100746.34;1686315;84;20977;-41
2021/12/18 04:17:12;;;;;;;9.53;3.52;;;;;;;3.14;81.49;100743.75;1685210;84;21013;-41
2021/12/18 04:19:39;;;;;;;11.88;3.62;;;;;;;3.02;80.66;100743.32;1683708;84;21103;-40
2021/12/18 04:22:05;;;;;;;10.13;4.33;;;;;;;2.90;80.34;100738.16;1685946;84;21021;-41
2021/12/18 04:24:31;;;;;;;13.95;4.80;;;;;;;2.86;80.46;100735.55;1682349;85;21008;-42
2021/12/18 04:26:57;;;;;;;10.23;4.35;;;;;;;2.90;80.53;100740.31;1686457;84;21001;-41
2021/12/18 04:29:23;;;;;;;11.80;4.60;;;;;;;2.96;80.55;100748.09;1686884;83;20986;-40
2021/12/18 04:31:49;;;;;;;11.08;4.20;;;;;;;2.89;80.03;100739.87;1678221;85;21545;-41
2021/12/18 04:34:14;;;;;;;10.53;4.55;;;;;;;2.86;80.12;100739.45;1684394;85;21454;-41
2021/12/18 04:36:40;;;;;;;13.20;4.28;;;;;;;2.78;79.85;100733.81;1674091;85;21009;-40
2021/12/18 04:39:06;;;;;;;11.12;4.72;;;;;;;2.78;80.06;100737.27;1686786;85;21049;-40
2021/12/18 04:41:42;;;;;;;12.00;4.62;;;;;;;2.70;79.91;100729.92;1685454;83;21001;-43
2021/12/18 04:44:06;;;;;;;10.70;4.47;;;;;;;2.79;80.38;100726.47;1688644;84;21004;-41
2021/12/18 04:46:32;;;;;;;12.37;4.33;;;;;;;2.82;80.28;100723.84;1687307;84;21021;-40
2021/12/18 04:48:57;;;;;;;13.20;4.85;;;;;;;2.83;80.33;100721.70;1687249;84;21025;-41
2021/12/18 04:51:23;;;;;;;6.95;4.30;;;;;;;2.86;80.29;100717.81;1688277;84;21005;-41
2021/12/18 04:53:49;;;;;;;13.20;4.97;;;;;;;2.82;80.08;100719.95;1687377;84;21048;-40
2021/12/18 04:56:15;;;;;;;13.62;4.47;;;;;;;2.91;80.43;100718.67;1688167;84;21473;-41
2021/12/18 04:58:40;;;;;;;12.43;4.47;;;;;;;2.86;79.35;100709.56;1687720;83;21490;-41
2021/12/18 05:01:06;;;;;;;13.60;5.40;;;;;;;2.87;79.52;100715.21;1688632;83;21507;-40
2021/12/18 05:03:32;;;;;;;10.25;4.33;;;;;;;2.87;79.52;100715.21;1688553;83;21506;-41
2021/12/18 05:06:00;;;;;;;9.43;4.80;;;;;;;2.83;79.68;100717.80;1687867;84;21482;-41
2021/12/18 05:08:26;;;;;;;13.28;5.12;;;;;;;2.88;79.73;100720.83;1687722;83;21056;-41
2021/12/18 05:10:52;;;;;;;9.58;4.72;;;;;;;2.79;79.80;100727.77;1688307;84;21033;-42
2021/12/18 05:13:18;;;;;;;12.45;4.40;;;;;;;2.69;79.55;100722.58;1688062;84;21514;-40
2021/12/18 05:15:44;;;;;;;11.25;4.37;;;;;;;2.73;79.74;100728.64;1689314;83;21012;-40
2021/12/18 05:18:09;;;;;;;16.27;5.20;;;;;;;2.71;79.92;100719.98;1688222;84;21028;-41
2021/12/18 05:20:36;;;;;;;10.05;4.50;;;;;;;2.80;80.12;100725.58;1688190;84;21020;-40
2021/12/18 05:23:02;;;;;;;12.45;4.37;;;;;;;2.82;80.08;100728.63;1688250;84;21506;-42
2021/12/18 05:25:27;;;;;;;11.60;4.95;;;;;;;2.84;80.05;100735.13;1688170;84;21017;-42
2021/12/18 05:27:53;;;;;;;11.03;4.35;;;;;;;2.68;80.15;100731.66;1687584;84;21017;-41
2021/12/18 05:30:19;;;;;;;10.90;5.03;;;;;;;2.74;80.42;100734.25;1687801;85;21025;-40
2021/12/18 05:32:45;;;;;;;16.75;5.42;;;;;;;2.83;80.41;100739.88;1688372;84;21017;-41
2021/12/18 05:35:13;;;;;;;10.93;5.22;;;;;;;2.83;80.19;100735.55;1687993;83;21052;-41
2021/12/18 05:37:50;;;;;;;13.90;5.22;;;;;;;2.82;80.19;100735.13;1688135;84;20989;-41
2021/12/18 05:40:25;;;;;;;13.23;5.80;;;;;;;2.80;79.78;100741.17;1688016;84;21001;-41
2021/12/18 05:42:53;;;;;;;13.93;6.12;;;;;;;2.69;79.71;100747.25;1687246;83;21495;-41
2021/12/18 05:45:20;;;;;;;12.30;5.28;;;;;;;2.65;79.98;100748.53;1687328;84;21000;-41
2021/12/18 05:47:47;;;;;;;13.48;6.62;;;;;;;2.66;80.37;100747.69;1687586;84;20985;-41
2021/12/18 05:50:16;;;;;;;14.50;5.78;;;;;;;2.62;80.28;100744.22;1689220;85;21029;-42
2021/12/18 05:52:44;;;;;;;13.32;5.62;;;;;;;2.62;80.52;100735.13;1687260;84;21040;-40
2021/12/18 05:55:10;;;;;;;17.37;5.55;;;;;;;2.57;80.47;100732.09;1689038;83;21005;-41
2021/12/18 05:57:36;;;;;;;11.33;4.92;;;;;;;2.75;80.59;100732.51;1688065;83;21012;-42
2021/12/18 06:00:06;;;;;;;15.35;5.85;;;;;;;2.75;80.29;100740.30;1687335;85;21455;-40
2021/12/18 06:02:32;;;;;;;15.28;5.90;;;;;;;2.67;80.12;100739.90;1687249;85;21052;-41
2021/12/18 06:04:58;;;;;;;17.07;5.92;;;;;;;2.61;80.02;100741.17;1688147;85;20981;-41
2021/12/18 06:07:32;;;;;;;14.07;5.72;;;;;;;2.60;80.13;100738.16;1687256;84;21056;-42
2021/12/18 06:09:59;;;;;;;13.43;5.35;;;;;;;2.62;79.87;100726.04;1687122;84;21005;-43
2021/12/18 06:12:26;;;;;;;13.90;5.50;;;;;;;2.63;79.77;100722.55;1687315;84;21037;-43
2021/12/18 06:14:52;;;;;;;17.02;6.17;;;;;;;2.62;79.76;100726.04;1688379;84;21065;-42
2021/12/18 06:17:18;;;;;;;15.63;6.10;;;;;;;2.61;79.55;100730.78;1688605;85;21001;-41
2021/12/18 06:19:44;;;;;;;13.08;5.70;;;;;;;2.64;79.60;100729.50;1689444;83;21013;-42
2021/12/18 06:22:10;;;;;;;18.98;6.53;;;;;;;2.62;79.79;100723.44;1688161;83;20986;-42
2021/12/18 06:24:36;;;;;;;12.82;5.20;;;;;;;2.67;79.78;100721.72;1687285;84;21529;-42
2021/12/18 06:27:02;;;;;;;13.13;5.92;;;;;;;2.71;79.99;100722.99;1689471;83;21517;-41
2021/12/18 06:29:28;;;;;;;18.00;6.15;;;;;;;2.75;80.11;100723.41;1687933;83;21053;-41
2021/12/18 06:31:54;;;;;;;16.97;6.40;;;;;;;2.75;80.09;100716.92;1687285;84;21533;-41
2021/12/18 06:34:19;;;;;;;15.95;6.47;;;;;;;2.82;80.11;100718.65;1687719;84;21624;-42
2021/12/18 06:36:45;;;;;;;13.60;6.10;;;;;;;2.74;80.01;100719.96;1687709;83;21736;-42
2021/12/18 06:39:11;;;;;;;15.80;6.97;;;;;;;2.72;80.06;100711.75;1688115;85;21589;-41
2021/12/18 06:41:37;;;;;;;12.37;6.00;;;;;;;2.71;79.89;100717.80;1687258;84;21048;-41
2021/12/18 06:44:03;;;;;;;13.95;6.20;;;;;;;2.72;79.90;100720.40;1687167;84;21049;-41
2021/12/18 06:46:29;;;;;;;14.13;6.83;;;;;;;2.66;79.96;100723.87;1682797;84;21022;-41
2021/12/18 06:48:55;;;;;;;16.52;6.70;;;;;;;2.63;79.99;100721.70;1684668;84;21483;-41
2021/12/18 06:51:21;;;;;;;17.92;6.62;;;;;;;2.60;80.03;100716.50;1690441;84;21004;-41
2021/12/18 06:53:47;;;;;;;21.00;6.80;;;;;;;2.49;80.13;100712.59;1690388;84;21005;-40
2021/12/18 06:56:13;;;;;;;19.05;6.72;;;;;;;2.55;80.23;100713.91;1686144;84;21037;-41
2021/12/18 06:58:39;;;;;;;20.12;7.35;;;;;;;2.57;80.44;100706.98;1690495;84;21484;-40
2021/12/18 07:01:05;;;;;;;14.40;6.03;;;;;;;2.58;80.55;100700.91;1690442;83;21000;-41
2021/12/18 07:03:32;;;;;;;20.48;6.58;;;;;;;2.68;80.72;100703.09;1689690;84;21004;-41
2021/12/18 07:05:58;;;;;;;17.77;6.20;;;;;;;2.63;80.59;100699.62;1685535;84;20982;-43
2021/12/18 07:08:23;;;;;;;16.70;6.85;;;;;;;2.67;80.81;100693.14;1688506;84;21009;-40
2021/12/18 07:10:49;;;;;;;20.43;6.25;;;;;;;2.69;80.71;100689.22;1686479;85;21565;-42
2021/12/18 07:13:15;;;;;;;18.85;6.83;;;;;;;2.76;80.66;100682.30;1690425;84;21008;-41
2021/12/18 07:15:42;;;;;;;19.90;7.15;;;;;;;2.76;80.57;100683.59;1690605;84;21006;-41
2021/12/18 07:18:08;;;;;;;17.95;7.22;;;;;;;2.73;80.24;100684.89;1686023;84;21049;-41
2021/12/18 07:20:34;;;;;;;19.35;6.70;;;;;;;2.72;80.44;100697.02;1690514;84;21056;-41
2021/12/18 07:23:01;;;;;;;15.80;6.83;;;;;;;2.56;80.47;100693.55;1689268;84;21032;-41
2021/12/18 07:25:28;;;;;;;13.48;6.53;;;;;;;2.57;80.57;100694.00;1687472;84;21013;-41
2021/12/18 07:27:54;;;;;;;18.33;6.43;;;;;;;2.60;80.75;100693.12;1690839;83;21316;-42
2021/12/18 07:30:20;;;;;;;21.60;6.77;;;;;;;2.56;80.73;100682.31;1690459;85;20973;-42
2021/12/18 07:32:46;;;;;;;19.10;6.45;;;;;;;2.54;80.83;100682.30;1685445;85;21012;-41
2021/12/18 07:35:12;;;;;;;22.40;6.92;;;;;;;2.49;81.12;100681.02;1686883;84;21044;-41
2021/12/18 07:37:38;;;;;;;15.15;7.10;;;;;;;2.55;81.22;100679.27;1690513;83;21009;-40
2021/12/18 07:40:07;;;;;;;15.50;6.53;;;;;;;2.56;81.42;100673.22;1690626;84;21041;-41
2021/12/18 07:42:33;;;;;;;25.23;11.22;;;;;;;2.56;81.42;100679.72;1690423;83;21001;-42
2021/12/18 07:44:59;;;;;;;17.52;9.35;;;;;;;2.54;81.27;100666.72;1689585;83;21439;-43
2021/12/18 07:47:26;;;;;;;24.65;12.37;;;;;;;2.47;81.35;100668.48;1686994;85;21485;-43
2021/12/18 07:49:52;;;;;;;26.23;12.00;;;;;;;2.42;81.82;100677.11;1688495;84;21029;-41
2021/12/18 07:52:18;;;;;;;22.42;9.55;;;;;;;2.30;81.71;100665.00;1686099;84;21455;-41
2021/12/18 07:54:44;;;;;;;24.05;10.68;;;;;;;2.30;82.08;100662.41;1690538;83;21534;-40
2021/12/18 07:57:10;;;;;;;17.60;9.90;;;;;;;2.32;82.36;100673.65;1689315;85;21064;-41
2021/12/18 07:59:36;;;;;;;20.40;8.45;;;;;;;2.39;82.13;100666.30;1685466;84;21020;-41
2021/12/18 08:02:04;;;;;;;24.63;9.05;;;;;;;2.36;82.22;100680.56;1685439;84;21021;-39
2021/12/18 08:04:31;;;;;;;19.57;8.25;;;;;;;2.35;82.44;100680.16;1686645;84;21527;-40
2021/12/18 08:06:57;;;;;;;17.02;7.25;;;;;;;2.25;82.79;100678.41;1686507;83;21016;-41
2021/12/18 08:09:23;;;;;;;22.75;9.28;;;;;;;2.27;82.83;100690.54;1690504;84;21076;-40
2021/12/18 08:11:49;;;;;;;18.77;8.90;;;;;;;2.20;83.01;100681.01;1690033;84;21036;-40
2021/12/18 08:14:14;;;;;;;25.35;10.72;;;;;;;2.17;83.57;100691.81;1685484;84;21017;-41
2021/12/18 08:16:40;;;;;;;16.93;9.38;;;;;;;2.20;83.45;100680.13;1686814;84;21013;-40
2021/12/18 08:19:06;;;;;;;24.20;9.98;;;;;;;2.18;83.58;100673.63;1686442;84;21005;-41
2021/12/18 08:21:32;;;;;;;20.97;9.53;;;;;;;2.16;84.02;100679.25;1690286;84;21040;-40
2021/12/18 08:23:58;;;;;;;26.40;10.23;;;;;;;2.20;84.01;100676.23;1685435;84;21036;-41
2021/12/18 08:26:24;;;;;;;19.32;9.40;;;;;;;2.27;83.81;100687.94;1686907;84;20981;-41
2021/12/18 08:28:50;;;;;;;25.30;9.55;;;;;;;2.26;83.79;100688.79;1690597;83;21490;-40
2021/12/18 08:31:16;;;;;;;20.70;9.33;;;;;;;2.19;83.78;100698.73;1686489;85;21494;-40
2021/12/18 08:33:42;;;;;;;23.18;10.20;;;;;;;2.22;83.83;100692.66;1690050;83;20986;-40
2021/12/18 08:36:08;;;;;;;25.43;9.33;;;;;;;2.25;84.03;100689.64;1675618;85;21044;-41
2021/12/18 08:38:35;;;;;;;29.20;9.68;;;;;;;2.22;84.18;100692.25;1686911;85;21036;-42
2021/12/18 08:41:01;;;;;;;19.92;9.50;;;;;;;2.33;83.83;100700.47;1688456;84;21479;-42
2021/12/18 08:43:27;;;;;;;26.02;11.10;;;;;;;2.23;84.46;100709.55;1686680;83;21509;-43
2021/12/18 08:45:53;;;;;;;23.12;10.43;;;;;;;2.19;84.34;100716.89;1686539;84;21005;-39
2021/12/18 08:48:19;;;;;;;23.15;10.08;;;;;;;2.28;84.27;100721.24;1681460;84;21065;-41
2021/12/18 08:50:45;;;;;;;21.07;11.05;;;;;;;2.29;84.02;100725.14;1681700;84;21565;-42
2021/12/18 08:53:11;;;;;;;28.07;11.70;;;;;;;2.17;84.26;100715.17;1684941;84;21048;-42
2021/12/18 08:55:37;;;;;;;23.73;11.43;;;;;;;2.17;84.49;100706.95;1689738;85;21546;-40
2021/12/18 08:58:03;;;;;;;28.57;12.13;;;;;;;2.16;84.27;100702.61;1689794;83;21576;-40
2021/12/18 09:00:30;;;;;;;26.02;13.62;;;;;;;2.18;84.50;100696.98;1685615;84;20993;-42
2021/12/18 09:02:58;;;;;;;;;;;;;;;2.20;84.80;100690.50;1688301;84;21044;-42
2021/12/18 09:05:25;;;;;;;23.15;11.53;;;;;;;2.25;84.48;100688.34;1686504;85;20146;-41
2021/12/18 09:07:50;;;;;;;22.93;10.88;;;;;;;2.33;84.45;100681.00;1687911;84;21009;-40
2021/12/18 09:10:17;;;;;;;32.17;16.02;;;;;;;2.36;84.12;100674.52;1688054;84;21509;-41
2021/12/18 09:12:44;;;;;;;39.00;17.52;;;;;;;2.40;84.38;100687.92;1689178;85;21028;-41
2021/12/18 09:15:11;;;;;;;34.08;16.55;;;;;;;2.42;84.38;100687.48;1684065;84;21542;-41
2021/12/18 09:17:37;;;;;;;28.57;12.47;;;;;;;2.48;84.19;100684.47;1686822;84;21505;-41
2021/12/18 09:20:04;;;;;;;23.85;12.73;;;;;;;2.52;83.99;100677.99;1690460;84;21833;-40
2021/12/18 09:22:30;;;;;;;31.35;16.75;;;;;;;2.60;83.78;100673.64;1690378;83;21016;-41
2021/12/18 09:24:56;;;;;;;36.15;17.98;;;;;;;2.54;83.55;100661.53;1688290;84;20982;-42
2021/12/18 09:27:22;;;;;;;24.80;15.32;;;;;;;2.56;83.48;100660.23;1688057;84;21024;-41
2021/12/18 09:29:48;;;;;;;32.53;16.95;;;;;;;2.52;83.39;100656.77;1688756;83;21028;-41
2021/12/18 09:32:14;;;;;;;41.60;19.00;;;;;;;2.39;83.84;100652.46;1687473;83;21084;-42
2021/12/18 09:34:40;;;;;;;34.38;19.20;;;;;;;2.35;83.95;100642.52;1690396;84;21014;-41
2021/12/18 09:37:07;;;;;;;37.48;17.77;;;;;;;2.29;84.53;100644.67;1690374;83;21059;-42
2021/12/18 09:39:33;;;;;;;30.15;16.48;;;;;;;2.32;84.45;100633.41;1689536;84;21455;-41
2021/12/18 09:41:59;;;;;;;26.80;15.37;;;;;;;2.39;84.22;100624.76;1685874;84;21017;-43
2021/12/18 09:44:32;;;;;;;31.27;16.45;;;;;;;2.32;84.44;100623.03;1690212;84;21518;-41
2021/12/18 09:46:58;;;;;;;22.73;13.95;;;;;;;2.30;84.50;100620.43;1688570;84;20985;-42
2021/12/18 09:49:25;;;;;;;29.18;13.68;;;;;;;2.40;84.35;100618.72;1687221;83;20989;-40
2021/12/18 09:51:52;;;;;;;41.10;14.03;;;;;;;2.46;84.14;100608.31;1686805;84;21514;-40
2021/12/18 09:54:19;;;;;;;28.65;14.65;;;;;;;2.48;84.17;100609.61;1687629;83;21014;-41
2021/12/18 09:56:45;;;;;;;23.10;12.45;;;;;;;2.54;84.20;100598.35;1684698;84;21012;-42
2021/12/18 09:59:12;;;;;;;27.45;13.18;;;;;;;2.55;84.09;100590.56;1685539;84;20998;-40
2021/12/18 10:01:39;;;;;;;24.67;13.78;;;;;;;2.50;83.97;100584.06;1689659;84;21052;-40
2021/12/18 10:04:09;;;;;;;28.92;14.50;;;;;;;2.45;83.96;100587.09;1686950;84;21012;-41
2021/12/18 10:06:45;;;;;;;28.12;13.10;;;;;;;2.52;83.98;100585.80;1689335;83;21016;-40
2021/12/18 10:09:19;;;;;;;26.42;14.60;;;;;;;2.52;84.09;100580.17;1690372;84;21049;-40
2021/12/18 10:11:49;;;;;;;27.37;14.33;;;;;;;2.43;83.81;100566.77;1686407;84;21021;-41
2021/12/18 10:14:16;;;;;;;39.13;15.53;;;;;;;2.46;84.28;100564.62;1690122;83;21001;-42
2021/12/18 10:16:50;;;;;;;31.30;14.20;;;;;;;2.40;84.34;100562.89;1686407;84;21008;-42
2021/12/18 10:19:33;;;;;;;36.70;17.73;;;;;;;2.43;84.43;100556.82;1685794;84;21021;-42
2021/12/18 10:22:06;;;;;;;43.73;19.23;;;;;;;2.37;84.59;100560.73;1683543;84;21019;-41
2021/12/18 10:24:36;;;;;;;41.13;20.72;;;;;;;2.28;84.97;100555.97;1689640;84;21065;-42
2021/12/18 10:27:22;;;;;;;46.53;21.27;;;;;;;2.30;84.99;100545.15;1672049;85;20993;-41
2021/12/18 10:29:51;;;;;;;52.70;22.80;;;;;;;2.33;85.50;100543.41;1684698;84;21025;-42
2021/12/18 10:32:23;;;;;;;54.95;24.40;;;;;;;2.25;85.38;100540.39;1684384;84;21052;-42
2021/12/18 10:34:54;;;;;;;55.70;24.45;;;;;;;2.32;85.69;100537.37;1687870;83;21052;-42
2021/12/18 10:37:31;;;;;;;61.37;25.95;;;;;;;2.32;85.81;100538.66;1689998;85;21001;-41
2021/12/18 10:40:10;;;;;;;59.05;26.35;;;;;;;2.34;85.97;100534.33;1687541;84;21520;-42
2021/12/18 10:42:40;;;;;;;66.65;27.42;;;;;;;2.44;85.51;100528.70;1689998;83;20970;-40
2021/12/18 10:45:14;;;;;;;60.73;26.97;;;;;;;2.52;85.55;100524.34;1686435;82;21104;-41
2021/12/18 10:48:00;;;;;;;59.48;25.92;;;;;;;2.47;85.86;100529.97;1685579;84;21455;-42
2021/12/18 10:50:45;;;;;;;69.50;27.60;;;;;;;2.38;85.88;100532.59;1685900;84;21064;-40
2021/12/18 10:53:24;;;;;;;62.27;27.00;;;;;;;2.46;85.80;100529.56;1683845;84;20993;-40
2021/12/18 10:55:56;;;;;;;56.90;25.45;;;;;;;2.53;85.48;100528.69;1689863;84;21032;-40
2021/12/18 10:58:36;;;;;;;67.47;27.58;;;;;;;2.49;85.64;100526.94;1689721;84;21017;-40
2021/12/18 11:01:11;;;;;;;56.60;26.05;;;;;;;2.52;85.75;100520.45;1685074;84;21507;-41
2021/12/18 11:03:50;;;;;;;68.45;29.67;;;;;;;2.50;85.59;100520.89;1684465;84;21037;-42
2021/12/18 11:06:28;;;;;;;73.30;30.08;;;;;;;2.43;85.86;100511.39;1684598;84;21009;-42
2021/12/18 11:09:11;;;;;;;71.50;29.95;;;;;;;2.38;86.15;100498.41;1687317;84;21012;-42
2021/12/18 11:14:36;;;;;;;68.78;26.52;;;;;;;2.36;85.81;100488.91;1689904;83;20989;-41
2021/12/18 11:17:06;;;;;;;62.95;26.50;;;;;;;2.36;86.25;100494.09;1689718;85;21064;-42
2021/12/18 11:19:35;;;;;;;58.48;26.05;;;;;;;2.43;86.07;100491.92;1689611;83;21454;-42
2021/12/18 11:22:15;;;;;;;52.00;25.50;;;;;;;2.47;85.84;100490.62;1689597;84;21024;-43
2021/12/18 11:25:01;;;;;;;54.70;26.27;;;;;;;2.45;85.88;100489.73;1685096;84;21865;-41
2021/12/18 11:27:31;;;;;;;53.78;25.95;;;;;;;2.48;85.97;100484.54;1688173;84;21024;-39
2021/12/18 11:30:08;;;;;;;51.85;25.08;;;;;;;2.56;85.77;100481.91;1686338;83;21081;-41
2021/12/18 11:32:42;;;;;;;42.57;21.43;;;;;;;2.50;85.64;100473.71;1686443;84;21037;-39
2021/12/18 11:35:19;;;;;;;36.63;19.37;;;;;;;2.52;85.51;100463.77;1683784;84;21093;-42
2021/12/18 11:37:52;;;;;;;39.08;19.20;;;;;;;2.50;85.48;100462.47;1685846;84;21029;-41
2021/12/18 11:40:31;;;;;;;36.65;20.90;;;;;;;2.41;85.39;100468.55;1682078;84;21075;-41
2021/12/18 11:42:57;;;;;;;34.23;19.05;;;;;;;2.55;85.36;100455.94;1686839;84;21020;-42
2021/12/18 11:45:34;;;;;;;32.85;19.45;;;;;;;2.55;84.94;100455.94;1691002;83;21046;-43
2021/12/18 11:48:01;;;;;;;34.60;19.30;;;;;;;2.49;85.03;100449.04;1712895;83;20941;-42
2021/12/18 11:50:31;;;;;;;;;;;;;;;2.35;85.39;100453.41;1710475;83;21042;-43
2021/12/18 11:53:11;;;;;;;38.35;19.70;;;;;;;2.47;85.21;100454.27;1702634;83;20300;-41
2021/12/18 11:55:54;;;;;;;38.85;21.15;;;;;;;2.35;85.18;100461.20;1706730;83;21457;-41
2021/12/18 11:58:26;;;;;;;38.88;20.35;;;;;;;2.38;85.22;100463.36;1711256;83;21732;-41
2021/12/18 12:01:00;;;;;;;30.27;18.55;;;;;;;2.26;85.42;100448.70;1712346;83;21123;-40
2021/12/18 12:03:53;;;;;;;35.35;19.82;;;;;;;2.31;85.82;100440.91;1705641;83;21056;-43
2021/12/18 12:06:36;;;;;;;37.42;20.52;;;;;;;2.30;85.75;100436.13;1706645;83;20993;-41
2021/12/18 12:09:35;;;;;;;34.70;18.65;;;;;;;2.33;85.71;100424.00;1713973;83;21594;-42
2021/12/18 12:12:02;;;;;;;31.37;18.10;;;;;;;2.33;85.56;100426.60;1712180;83;21003;-41
2021/12/18 12:14:30;;;;;;;30.40;19.37;;;;;;;2.33;85.67;100431.80;1710542;83;21046;-41
2021/12/18 12:17:29;;;;;;;39.35;18.40;;;;;;;2.27;86.16;100423.59;1710594;83;21062;-41